Time;durP1;ratioP1;P1;durP2;ratioP2;P2;SDS_P1;SDS_P2;PMS_P1;PMS_P2;Temp;Humidity;BMP_temperature;BMP_pressure;BME280_temperature;BME280_humidity;BME280_pressure;Samples;Min_cycle;Max_cycle;Signal;HPM_P1;HPM_P2
2022/06/27 00:00:25;;;;;;;1.40;1.30;;;20.90;99.90;;;;;;5046891;28;20620;-72
2022/06/27 00:02:51;;;;;;;3.07;1.70;;;20.90;99.90;;;;;;5046787;28;20555;-73
2022/06/27 00:05:17;;;;;;;2.60;1.20;;;20.90;99.90;;;;;;5046934;28;20562;-71
2022/06/27 00:07:42;;;;;;;2.00;1.27;;;21.00;99.90;;;;;;5046864;28;21276;-70
2022/06/27 00:10:09;;;;;;;1.47;1.20;;;20.90;99.90;;;;;;5047120;28;20632;-71
2022/06/27 00:12:37;;;;;;;1.37;1.27;;;21.10;99.90;;;;;;5046897;28;20202;-71
2022/06/27 00:15:03;;;;;;;4.70;1.10;;;21.20;99.90;;;;;;5047121;28;20448;-71
2022/06/27 00:17:29;;;;;;;0.93;0.77;;;21.10;99.90;;;;;;5046547;28;20536;-72
2022/06/27 00:19:55;;;;;;;1.63;0.70;;;21.10;99.90;;;;;;5046552;28;20543;-74
2022/06/27 00:22:20;;;;;;;1.27;0.80;;;20.90;99.90;;;;;;5047218;28;20179;-71
2022/06/27 00:24:46;;;;;;;0.90;0.80;;;20.70;99.90;;;;;;5046853;28;20539;-71
2022/06/27 00:27:12;;;;;;;1.57;0.93;;;20.80;99.90;;;;;;5028512;28;20233;-71
2022/06/27 00:29:40;;;;;;;2.07;0.80;;;20.60;99.90;;;;;;5046478;28;20439;-72
2022/06/27 00:32:06;;;;;;;2.80;1.57;;;20.50;99.90;;;;;;5046285;28;20225;-72
2022/06/27 00:34:32;;;;;;;2.67;1.30;;;20.60;99.90;;;;;;5029013;28;20412;-71
2022/06/27 00:36:58;;;;;;;2.97;0.90;;;20.50;99.90;;;;;;5046424;28;20605;-71
2022/06/27 00:39:23;;;;;;;2.23;1.13;;;20.40;99.90;;;;;;5046398;28;20207;-71
2022/06/27 00:41:49;;;;;;;0.90;0.70;;;20.20;99.90;;;;;;5046672;28;20171;-72
2022/06/27 00:44:35;;;;;;;3.10;1.40;;;20.10;99.90;;;;;;5046765;28;20175;-70
2022/06/27 00:47:07;;;;;;;6.60;1.70;;;19.90;99.90;;;;;;5046342;28;20178;-69
2022/06/27 00:49:35;;;;;;;5.13;1.67;;;19.70;99.90;;;;;;5046517;28;20433;-70
2022/06/27 00:52:03;;;;;;;2.40;1.37;;;19.50;99.90;;;;;;5046575;28;20420;-70
2022/06/27 00:54:29;;;;;;;3.27;1.70;;;19.40;99.90;;;;;;5046460;28;20412;-71
2022/06/27 00:56:55;;;;;;;3.30;1.57;;;19.20;99.90;;;;;;5046699;28;20409;-70
2022/06/27 00:59:21;;;;;;;1.40;1.10;;;19.40;99.90;;;;;;5046515;28;20460;-71
2022/06/27 01:01:46;;;;;;;2.57;1.60;;;19.40;99.90;;;;;;5046400;28;20417;-71
2022/06/27 01:04:12;;;;;;;1.77;1.33;;;19.50;99.90;;;;;;5046063;28;20178;-70
2022/06/27 01:06:38;;;;;;;3.07;1.00;;;19.40;99.90;;;;;;5046055;28;20261;-71
2022/06/27 01:09:04;;;;;;;1.17;0.80;;;19.50;99.90;;;;;;5046349;28;20189;-70
2022/06/27 01:11:30;;;;;;;1.70;1.23;;;19.40;99.90;;;;;;5046004;28;20752;-71
2022/06/27 01:13:56;;;;;;;2.80;1.27;;;19.50;99.90;;;;;;5046216;28;20412;-70
2022/06/27 01:16:23;;;;;;;3.20;1.20;;;19.30;99.90;;;;;;5045899;28;20416;-69
2022/06/27 01:18:49;;;;;;;1.90;1.30;;;19.30;99.90;;;;;;5045843;28;20190;-70
2022/06/27 01:21:25;;;;;;;4.63;1.60;;;19.30;99.90;;;;;;5045587;28;20489;-70
2022/06/27 01:23:52;;;;;;;2.60;1.33;;;19.30;99.90;;;;;;5045747;28;20433;-68
2022/06/27 01:26:21;;;;;;;1.67;1.10;;;19.30;99.90;;;;;;5045822;28;20419;-70
2022/06/27 01:28:47;;;;;;;2.30;1.10;;;19.50;99.90;;;;;;5045459;28;20512;-70
2022/06/27 01:31:14;;;;;;;1.30;0.90;;;19.70;99.90;;;;;;5045051;28;20436;-69
2022/06/27 01:33:40;;;;;;;3.40;1.00;;;19.70;99.90;;;;;;5044896;28;20508;-71
2022/06/27 01:38:51;;;;;;;2.50;1.07;;;19.70;99.90;;;;;;5045660;28;21216;-70
2022/06/27 01:41:17;;;;;;;3.10;0.90;;;19.60;99.90;;;;;;5045202;28;20480;-70
2022/06/27 01:43:48;;;;;;;4.97;1.20;;;19.50;99.90;;;;;;5045254;28;20435;-69
2022/06/27 01:46:14;;;;;;;1.10;0.70;;;19.60;99.90;;;;;;5045197;28;20415;-70
2022/06/27 01:48:40;;;;;;;2.90;1.23;;;19.60;99.90;;;;;;5044960;28;20740;-70
2022/06/27 01:51:09;;;;;;;2.03;1.13;;;19.60;99.90;;;;;;5045323;28;20421;-69
2022/06/27 01:53:36;;;;;;;1.50;1.20;;;19.50;99.90;;;;;;5045018;28;20417;-69
2022/06/27 01:56:03;;;;;;;2.60;1.40;;;19.40;99.90;;;;;;5044804;28;20467;-69
2022/06/27 01:58:29;;;;;;;2.90;1.50;;;19.40;99.90;;;;;;5045173;28;20417;-70
2022/06/27 02:00:55;;;;;;;2.00;1.53;;;19.40;99.90;;;;;;5045222;28;21011;-71
2022/06/27 02:03:23;;;;;;;2.03;1.47;;;19.00;99.90;;;;;;5045054;28;20265;-71
2022/06/27 02:05:51;;;;;;;2.67;1.30;;;19.20;99.90;;;;;;5069232;22;20404;-72
2022/06/27 02:08:19;;;;;;;2.50;1.10;;;19.20;99.90;;;;;;5023572;28;20425;-72
2022/06/27 02:10:45;;;;;;;1.60;1.33;;;19.30;99.90;;;;;;5024549;28;20417;-73
2022/06/27 02:13:12;;;;;;;2.80;1.10;;;19.40;99.90;;;;;;5023992;28;21001;-75
2022/06/27 02:16:14;;;;;;;2.70;1.23;;;19.70;99.90;;;;;;5024850;28;20183;-73
2022/06/27 02:18:41;;;;;;;2.17;1.00;;;20.00;99.90;;;;;;5024137;28;20794;-74
2022/06/27 02:21:11;;;;;;;2.17;1.00;;;20.00;99.90;;;;;;5025017;28;20468;-73
2022/06/27 02:23:36;;;;;;;3.53;1.20;;;20.00;99.90;;;;;;5024865;28;20432;-71
2022/06/27 02:26:02;;;;;;;2.80;1.23;;;20.10;99.90;;;;;;5023031;28;20442;-73
2022/06/27 02:28:29;;;;;;;4.47;0.93;;;19.90;99.90;;;;;;5024713;28;20261;-73
2022/06/27 02:30:55;;;;;;;1.30;0.97;;;19.90;99.90;;;;;;5024552;28;20175;-73
2022/06/27 02:33:21;;;;;;;2.03;1.20;;;20.00;99.90;;;;;;5006742;28;20425;-74
2022/06/27 02:35:51;;;;;;;1.53;0.90;;;20.10;99.90;;;;;;5024439;28;20457;-72
2022/06/27 02:38:18;;;;;;;1.10;0.80;;;20.20;99.90;;;;;;5006798;28;20426;-74
2022/06/27 02:40:46;;;;;;;2.70;0.87;;;20.00;99.90;;;;;;5023707;28;20453;-73
2022/06/27 02:43:13;;;;;;;1.73;0.80;;;20.00;99.90;;;;;;5024353;28;20944;-73
2022/06/27 02:45:40;;;;;;;2.77;1.20;;;19.90;99.90;;;;;;5024110;28;20429;-73
2022/06/27 02:48:07;;;;;;;1.83;1.17;;;19.90;99.90;;;;;;5025292;28;20906;-73
2022/06/27 02:50:38;;;;;;;2.70;1.00;;;20.00;99.90;;;;;;5024335;28;20541;-74
2022/06/27 02:53:09;;;;;;;4.47;1.20;;;20.00;99.90;;;;;;5024109;28;20409;-74
2022/06/27 02:55:40;;;;;;;1.10;0.90;;;20.10;99.90;;;;;;5023781;28;20896;-74
2022/06/27 02:58:37;;;;;;;2.23;0.90;;;20.00;99.90;;;;;;5024182;28;20914;-73
2022/06/27 03:01:03;;;;;;;2.47;1.30;;;19.80;99.90;;;;;;5019755;28;20472;-73
2022/06/27 03:03:32;;;;;;;1.90;0.90;;;20.00;99.90;;;;;;5024123;28;20809;-74
2022/06/27 03:06:06;;;;;;;3.13;1.17;;;20.10;99.90;;;;;;5024228;28;20751;-73
2022/06/27 03:08:46;;;;;;;3.47;1.37;;;20.10;99.90;;;;;;5023904;28;20426;-72
2022/06/27 03:11:20;;;;;;;2.23;0.90;;;20.10;99.90;;;;;;5005873;28;21202;-72
2022/06/27 03:13:47;;;;;;;2.50;1.13;;;20.20;99.90;;;;;;5024120;28;20437;-73
2022/06/27 03:16:14;;;;;;;1.17;0.90;;;20.10;99.90;;;;;;5023537;28;20477;-74
2022/06/27 03:18:40;;;;;;;3.70;1.40;;;20.00;99.90;;;;;;5023811;28;20422;-72
2022/06/27 03:21:06;;;;;;;1.13;0.87;;;20.00;99.90;;;;;;5022984;28;20453;-72
2022/06/27 03:23:32;;;;;;;1.37;0.93;;;20.00;99.90;;;;;;5023675;28;20410;-73
2022/06/27 03:25:57;;;;;;;2.87;1.00;;;20.10;99.90;;;;;;5023594;28;20233;-73
2022/06/27 03:28:23;;;;;;;2.30;1.00;;;20.10;99.90;;;;;;5023864;28;20202;-71
2022/06/27 03:30:49;;;;;;;1.93;1.20;;;20.20;99.90;;;;;;5024139;28;20209;-74
2022/06/27 03:33:15;;;;;;;2.93;1.20;;;20.30;99.90;;;;;;5023815;28;20674;-73
2022/06/27 03:35:42;;;;;;;1.80;1.53;;;20.30;99.90;;;;;;5023920;28;20422;-74
2022/06/27 03:38:08;;;;;;;2.50;1.43;;;20.30;99.90;;;;;;5023973;28;20189;-73
2022/06/27 03:40:34;;;;;;;2.43;1.43;;;20.30;99.90;;;;;;5005924;28;20511;-73
2022/06/27 03:43:00;;;;;;;5.63;1.70;;;20.30;99.90;;;;;;5023663;28;20406;-73
2022/06/27 03:45:26;;;;;;;2.80;1.70;;;20.20;99.90;;;;;;5023308;28;20461;-73
2022/06/27 03:47:54;;;;;;;3.03;1.97;;;20.20;99.90;;;;;;5023952;28;20703;-73
2022/06/27 03:50:21;;;;;;;2.20;2.00;;;20.20;99.90;;;;;;5023811;28;20182;-73
2022/06/27 03:52:47;;;;;;;4.00;2.40;;;20.20;99.90;;;;;;5023512;28;20421;-74
2022/06/27 03:55:13;;;;;;;3.47;1.83;;;20.30;99.90;;;;;;5023450;28;20406;-73
2022/06/27 03:57:45;;;;;;;2.60;1.80;;;20.30;99.90;;;;;;5023157;28;20970;-73
2022/06/27 04:00:12;;;;;;;2.87;2.30;;;20.30;99.90;;;;;;5023434;28;20464;-73
2022/06/27 04:02:37;;;;;;;1.83;1.73;;;20.20;99.90;;;;;;5023503;28;20442;-74
2022/06/27 04:05:04;;;;;;;2.73;2.10;;;20.20;99.90;;;;;;5023510;28;20443;-71
2022/06/27 04:07:30;;;;;;;4.93;2.43;;;20.10;99.90;;;;;;5023195;28;20749;-73
2022/06/27 04:09:56;;;;;;;3.30;2.00;;;20.20;99.90;;;;;;5005596;28;20797;-74
2022/06/27 04:12:22;;;;;;;6.80;2.50;;;20.30;99.90;;;;;;5023458;28;20540;-72
2022/06/27 04:14:48;;;;;;;2.93;1.93;;;20.20;99.90;;;;;;5022954;28;21009;-73
2022/06/27 04:17:13;;;;;;;4.40;2.20;;;20.20;99.90;;;;;;5022953;28;20469;-73
2022/06/27 04:19:39;;;;;;;3.10;2.20;;;20.00;99.90;;;;;;5023323;28;20210;-74
2022/06/27 04:22:05;;;;;;;2.50;1.80;;;20.10;99.90;;;;;;5023415;28;20543;-75
2022/06/27 04:24:30;;;;;;;3.87;2.20;;;19.80;99.90;;;;;;5023238;28;20179;-73
2022/06/27 04:26:57;;;;;;;3.63;1.70;;;19.80;99.90;;;;;;5023185;28;20203;-74
2022/06/27 04:29:23;;;;;;;2.43;1.77;;;20.10;99.90;;;;;;5023257;28;20176;-73
2022/06/27 04:31:49;;;;;;;2.17;1.60;;;20.20;99.90;;;;;;5024900;28;20424;-74
2022/06/27 04:34:15;;;;;;;2.47;1.77;;;20.30;99.90;;;;;;5026993;28;20682;-72
2022/06/27 04:36:41;;;;;;;2.70;1.60;;;20.50;99.90;;;;;;5026723;28;20524;-72
2022/06/27 04:39:08;;;;;;;2.97;1.23;;;20.50;99.90;;;;;;5027075;28;20176;-74
2022/06/27 04:41:34;;;;;;;6.43;1.40;;;20.60;99.90;;;;;;5026520;28;20465;-74
2022/06/27 04:44:00;;;;;;;1.50;1.27;;;20.60;99.90;;;;;;5027623;28;20491;-73
2022/06/27 04:46:25;;;;;;;1.57;1.23;;;20.60;99.90;;;;;;5027113;28;20532;-74
2022/06/27 04:48:51;;;;;;;3.07;1.77;;;20.50;99.90;;;;;;5026284;28;20182;-73
2022/06/27 04:51:18;;;;;;;3.97;1.60;;;20.50;99.90;;;;;;5026905;28;20175;-74
2022/06/27 04:53:44;;;;;;;1.40;1.20;;;20.40;99.90;;;;;;5026641;28;20563;-74
2022/06/27 04:56:11;;;;;;;2.50;1.27;;;20.10;99.90;;;;;;5026347;28;20430;-74
2022/06/27 04:58:37;;;;;;;1.90;1.70;;;20.20;99.90;;;;;;5026800;28;20414;-71
2022/06/27 05:01:03;;;;;;;1.73;1.43;;;20.10;99.90;;;;;;5025906;28;20464;-72
2022/06/27 05:03:29;;;;;;;2.07;1.57;;;20.10;99.90;;;;;;5026420;28;20167;-73
2022/06/27 05:05:54;;;;;;;1.77;1.53;;;20.10;99.90;;;;;;5026007;28;20467;-74
2022/06/27 05:08:20;;;;;;;3.60;2.00;;;20.00;99.90;;;;;;5008397;28;20274;-73
2022/06/27 05:10:46;;;;;;;3.60;1.93;;;20.10;99.90;;;;;;5024878;28;20175;-72
2022/06/27 05:13:12;;;;;;;2.87;1.13;;;20.50;99.90;;;;;;5025901;28;20184;-74
2022/06/27 05:15:38;;;;;;;1.67;1.50;;;20.70;99.90;;;;;;5025659;28;20425;-72
2022/06/27 05:18:04;;;;;;;1.67;1.57;;;21.00;99.90;;;;;;5026002;28;20472;-74
2022/06/27 05:20:30;;;;;;;1.47;1.30;;;21.20;99.90;;;;;;5026282;28;20214;-71
2022/06/27 05:22:56;;;;;;;1.80;1.60;;;21.10;99.90;;;;;;5025678;28;20758;-73
2022/06/27 05:25:23;;;;;;;2.20;1.30;;;21.20;99.90;;;;;;5026177;28;20414;-73
2022/06/27 05:27:49;;;;;;;1.70;1.40;;;21.20;99.90;;;;;;5025399;28;20442;-74
2022/06/27 05:30:15;;;;;;;2.07;1.47;;;21.10;99.90;;;;;;5025660;28;20414;-73
2022/06/27 05:32:41;;;;;;;1.60;1.43;;;21.20;99.90;;;;;;5025602;28;20422;-72
2022/06/27 05:35:08;;;;;;;4.33;1.50;;;21.10;99.90;;;;;;5024093;28;20430;-71
2022/06/27 05:37:38;;;;;;;5.33;2.20;;;21.10;99.90;;;;;;5026036;28;20434;-72
2022/06/27 05:40:07;;;;;;;2.93;1.33;;;20.80;99.90;;;;;;5025840;28;20511;-73
2022/06/27 05:42:33;;;;;;;2.50;1.43;;;20.90;99.90;;;;;;5007143;28;20430;-74
2022/06/27 05:45:03;;;;;;;2.80;1.60;;;21.20;99.90;;;;;;5025495;28;20850;-72
2022/06/27 05:47:30;;;;;;;3.40;1.63;;;21.20;99.90;;;;;;5025919;28;20444;-72
2022/06/27 05:49:58;;;;;;;1.53;1.43;;;21.20;99.90;;;;;;5025728;28;20463;-71
2022/06/27 05:52:23;;;;;;;2.80;1.60;;;21.10;99.90;;;;;;5025698;28;20456;-75
2022/06/27 05:54:49;;;;;;;3.47;1.80;;;21.30;99.90;;;;;;5025427;28;20512;-73
2022/06/27 05:57:15;;;;;;;2.20;1.63;;;21.20;99.90;;;;;;5025250;28;20203;-73
2022/06/27 05:59:41;;;;;;;2.57;1.40;;;21.20;99.90;;;;;;5024998;28;20202;-74
2022/06/27 06:02:07;;;;;;;1.60;1.43;;;21.30;99.90;;;;;;5025522;28;20792;-73
2022/06/27 06:04:33;;;;;;;13.60;3.10;;;21.40;99.90;;;;;;5025294;28;20421;-72
2022/06/27 06:06:59;;;;;;;2.10;1.40;;;21.50;99.90;;;;;;5024856;28;20211;-73
2022/06/27 06:09:25;;;;;;;3.37;1.60;;;21.80;99.90;;;;;;5025372;28;20420;-73
2022/06/27 06:11:53;;;;;;;1.87;1.30;;;22.00;99.90;;;;;;5024793;28;20229;-71
2022/06/27 06:14:21;;;;;;;6.17;1.63;;;22.10;99.90;;;;;;5024979;28;20424;-73
2022/06/27 06:16:48;;;;;;;1.83;1.43;;;22.00;99.90;;;;;;5024551;28;20438;-73
2022/06/27 06:19:14;;;;;;;2.90;1.80;;;22.10;99.90;;;;;;5025018;28;20414;-73
2022/06/27 06:21:40;;;;;;;3.33;1.60;;;22.20;99.90;;;;;;5024538;28;20414;-75
2022/06/27 06:24:06;;;;;;;4.10;1.70;;;22.10;99.90;;;;;;5024715;28;20421;-73
2022/06/27 06:26:32;;;;;;;5.50;1.83;;;21.80;99.90;;;;;;5024964;28;20203;-72
2022/06/27 06:29:05;;;;;;;4.30;1.63;;;21.70;99.90;;;;;;5025116;28;20445;-74
2022/06/27 06:31:31;;;;;;;9.13;2.97;;;21.80;99.90;;;;;;5024558;28;20485;-73
2022/06/27 06:33:57;;;;;;;2.70;1.53;;;22.00;99.90;;;;;;5024534;28;20417;-74
2022/06/27 06:36:23;;;;;;;6.90;2.50;;;22.00;99.90;;;;;;5024777;28;20446;-72
2022/06/27 06:38:52;;;;;;;2.03;1.83;;;22.10;99.90;;;;;;5024734;28;20183;-72
2022/06/27 06:41:18;;;;;;;6.60;1.93;;;22.30;99.90;;;;;;5024143;28;20461;-73
2022/06/27 06:43:46;;;;;;;2.70;1.17;;;22.20;99.90;;;;;;5024371;28;20437;-72
2022/06/27 06:46:12;;;;;;;1.60;1.17;;;22.00;99.90;;;;;;5024215;28;20430;-72
2022/06/27 06:48:40;;;;;;;1.70;1.10;;;21.70;99.90;;;;;;5024883;28;20410;-72
2022/06/27 06:51:07;;;;;;;1.40;1.00;;;22.00;99.90;;;;;;5024487;28;20761;-72
2022/06/27 06:53:35;;;;;;;1.30;1.20;;;22.20;99.90;;;;;;5023977;28;20418;-71
2022/06/27 06:56:01;;;;;;;2.03;1.20;;;22.30;99.90;;;;;;5024294;28;20484;-76
2022/06/27 06:58:27;;;;;;;1.30;1.13;;;21.80;99.90;;;;;;5024210;28;21304;-73
2022/06/27 07:00:54;;;;;;;2.60;0.90;;;21.70;99.90;;;;;;5023764;28;20449;-72
2022/06/27 07:03:20;;;;;;;2.17;1.10;;;21.60;99.90;;;;;;5024050;28;20557;-73
2022/06/27 07:05:46;;;;;;;1.10;0.80;;;21.80;99.90;;;;;;5023462;28;20926;-74
2022/06/27 07:08:12;;;;;;;1.77;1.10;;;22.10;99.90;;;;;;5024254;28;20410;-73
2022/06/27 07:10:39;;;;;;;1.93;1.10;;;22.20;99.90;;;;;;5024312;28;20426;-72
2022/06/27 07:13:05;;;;;;;2.37;1.40;;;22.60;99.90;;;;;;5023571;28;20446;-72
2022/06/27 07:15:33;;;;;;;6.60;1.07;;;22.70;99.90;;;;;;5023663;28;20940;-73
2022/06/27 07:18:00;;;;;;;2.50;1.00;;;22.60;99.90;;;;;;5023842;28;20406;-73
2022/06/27 07:20:27;;;;;;;1.63;0.90;;;22.70;99.90;;;;;;5023707;28;20453;-72
2022/06/27 07:22:53;;;;;;;1.20;1.00;;;22.70;99.90;;;;;;5024158;28;20975;-72
2022/06/27 07:25:19;;;;;;;1.33;0.77;;;22.60;99.90;;;;;;5005969;28;20421;-72
2022/06/27 07:27:46;;;;;;;3.00;1.00;;;22.70;99.90;;;;;;5023362;28;20453;-73
2022/06/27 07:30:14;;;;;;;6.00;1.50;;;22.50;99.90;;;;;;5023622;28;20910;-72
2022/06/27 07:32:41;;;;;;;133.87;22.97;;;22.80;99.90;;;;;;5023502;28;20413;-72
2022/06/27 07:35:11;;;;;;;5.43;1.97;;;22.70;99.90;;;;;;5023528;28;20480;-71
2022/06/27 07:37:48;;;;;;;1.37;0.90;;;22.80;99.90;;;;;;5023592;28;20433;-74
2022/06/27 07:40:19;;;;;;;3.20;1.53;;;22.70;99.90;;;;;;5021152;28;20833;-73
2022/06/27 07:42:45;;;;;;;1.20;0.90;;;22.50;99.90;;;;;;5020777;28;20500;-74
2022/06/27 07:45:14;;;;;;;3.70;1.60;;;22.80;99.90;;;;;;5022336;28;20425;-73
2022/06/27 07:47:42;;;;;;;1.20;0.87;;;23.10;99.90;;;;;;5022716;28;20429;-73
2022/06/27 07:50:08;;;;;;;3.73;0.90;;;23.50;99.90;;;;;;5021828;28;20436;-75
2022/06/27 07:53:11;;;;;;;1.47;0.80;;;23.40;99.90;;;;;;5022690;28;20406;-72
2022/06/27 07:55:21;;;;;;;1.90;0.90;;;23.00;99.90;;;;;;5023250;28;20491;-74
2022/06/27 07:57:48;;;;;;;1.10;1.00;;;23.00;99.90;;;;;;5023388;28;20433;-72
2022/06/27 08:00:14;;;;;;;2.00;1.27;;;23.10;99.90;;;;;;5022967;28;20663;-74
2022/06/27 08:02:41;;;;;;;1.80;1.10;;;22.90;99.90;;;;;;5022932;28;20412;-75
2022/06/27 08:05:07;;;;;;;1.07;0.90;;;23.00;99.90;;;;;;5023410;28;20485;-74
2022/06/27 08:07:33;;;;;;;1.17;0.87;;;23.00;99.90;;;;;;5040883;22;20555;-69
2022/06/27 08:09:59;;;;;;;3.47;1.10;;;23.00;99.90;;;;;;5026510;28;20418;-69
2022/06/27 08:12:25;;;;;;;4.00;1.07;;;23.10;99.90;;;;;;5022901;28;20715;-69
2022/06/27 08:14:51;;;;;;;1.27;0.80;;;23.20;99.90;;;;;;5026337;28;20210;-70
2022/06/27 08:17:18;;;;;;;1.00;0.80;;;23.50;99.90;;;;;;5026884;28;20434;-70
2022/06/27 08:19:44;;;;;;;1.37;0.93;;;23.70;99.90;;;;;;5027282;28;20456;-70
2022/06/27 08:22:11;;;;;;;3.10;0.87;;;24.00;99.90;;;;;;5019744;28;21127;-71
2022/06/27 08:24:37;;;;;;;2.63;1.00;;;24.10;99.90;;;;;;5027140;28;20425;-70
2022/06/27 08:27:04;;;;;;;2.27;1.13;;;24.00;99.90;;;;;;5026940;28;20458;-70
2022/06/27 08:29:32;;;;;;;1.93;0.93;;;24.20;99.90;;;;;;5026576;28;20402;-70
2022/06/27 08:31:57;;;;;;;1.30;0.90;;;24.30;99.90;;;;;;5026657;28;20417;-70
2022/06/27 08:34:23;;;;;;;1.33;0.90;;;24.30;99.90;;;;;;5027092;28;20780;-70
2022/06/27 08:36:50;;;;;;;1.03;0.80;;;24.60;99.90;;;;;;5026490;28;20574;-70
2022/06/27 08:39:16;;;;;;;1.70;0.90;;;24.80;99.90;;;;;;5026628;28;20283;-68
2022/06/27 08:41:43;;;;;;;0.80;0.77;;;24.90;99.90;;;;;;5019180;28;20544;-69
2022/06/27 08:44:10;;;;;;;1.20;0.80;;;25.20;99.90;;;;;;5025027;28;20472;-71
2022/06/27 08:46:36;;;;;;;3.93;0.90;;;24.70;99.90;;;;;;5026470;28;20430;-70
2022/06/27 08:49:03;;;;;;;1.03;0.80;;;24.50;99.90;;;;;;5026069;28;20915;-71
2022/06/27 08:51:29;;;;;;;2.10;0.90;;;23.90;99.90;;;;;;5026330;28;20187;-72
2022/06/27 08:53:55;;;;;;;3.03;1.07;;;23.70;99.90;;;;;;5026236;28;20417;-69
2022/06/27 08:56:22;;;;;;;1.60;0.90;;;23.40;99.90;;;;;;5026481;28;20436;-69
2022/06/27 08:58:49;;;;;;;2.60;1.30;;;23.40;99.90;;;;;;5026518;28;20462;-69
2022/06/27 09:01:19;;;;;;;1.63;1.00;;;23.30;99.90;;;;;;5026184;28;20454;-70
2022/06/27 09:03:56;;;;;;;1.23;1.00;;;23.20;99.90;;;;;;5026448;28;20940;-69
2022/06/27 09:06:22;;;;;;;2.87;1.27;;;23.30;99.90;;;;;;5024957;28;20932;-70
2022/06/27 09:09:05;;;;;;;1.73;1.00;;;23.40;99.90;;;;;;5026027;28;20414;-70
2022/06/27 09:11:35;;;;;;;2.00;1.40;;;23.70;99.90;;;;;;5026097;28;20941;-70
2022/06/27 09:14:26;;;;;;;2.80;1.20;;;23.60;99.90;;;;;;5025624;28;20469;-70
2022/06/27 09:16:59;;;;;;;1.53;0.90;;;23.10;99.90;;;;;;5026281;28;20468;-70
2022/06/27 09:19:47;;;;;;;3.37;1.00;;;23.20;99.90;;;;;;5024885;28;20418;-69
2022/06/27 09:22:15;;;;;;;1.70;1.30;;;23.00;99.90;;;;;;5025448;28;20422;-69
2022/06/27 09:24:58;;;;;;;1.67;1.20;;;22.70;99.90;;;;;;5025646;28;20434;-70
2022/06/27 09:27:45;;;;;;;3.10;1.07;;;22.80;99.90;;;;;;5025848;28;20440;-69
2022/06/27 09:30:20;;;;;;;1.50;1.30;;;23.10;99.90;;;;;;5025606;28;20413;-69
2022/06/27 09:32:49;;;;;;;1.50;0.90;;;22.90;99.90;;;;;;5025665;28;20422;-73
2022/06/27 09:35:31;;;;;;;1.00;0.90;;;22.90;99.90;;;;;;5025534;28;20957;-70
2022/06/27 09:38:07;;;;;;;2.70;1.10;;;23.30;99.90;;;;;;5024879;28;21024;-72
2022/06/27 09:40:35;;;;;;;1.50;1.20;;;23.50;99.90;;;;;;5007714;28;20456;-70
2022/06/27 09:43:03;;;;;;;1.57;1.03;;;23.40;99.90;;;;;;5023095;28;20410;-69
2022/06/27 09:45:29;;;;;;;1.80;1.30;;;23.40;99.90;;;;;;5025282;28;20406;-71
2022/06/27 09:48:04;;;;;;;1.40;1.17;;;23.20;99.90;;;;;;5024838;28;20965;-69
2022/06/27 09:50:34;;;;;;;2.17;1.17;;;23.50;99.90;;;;;;5023531;28;20432;-68
2022/06/27 09:53:00;;;;;;;1.83;1.00;;;23.70;99.90;;;;;;5024675;28;20420;-69
2022/06/27 09:55:27;;;;;;;2.73;1.10;;;23.90;99.90;;;;;;5023677;28;21594;-69
2022/06/27 09:57:53;;;;;;;3.37;1.20;;;23.70;99.90;;;;;;5025323;28;20441;-69
2022/06/27 10:00:20;;;;;;;2.20;2.00;;;23.60;99.90;;;;;;5024929;28;20880;-70
2022/06/27 10:02:47;;;;;;;1.77;1.43;;;23.70;99.90;;;;;;5025089;28;20421;-71
2022/06/27 10:05:16;;;;;;;4.23;1.40;;;23.50;99.90;;;;;;5024893;28;20414;-69
2022/06/27 10:07:54;;;;;;;1.70;1.30;;;23.60;99.90;;;;;;5025489;28;20450;-69
2022/06/27 10:10:20;;;;;;;1.70;1.13;;;23.60;99.90;;;;;;5024640;28;20413;-70
2022/06/27 10:12:59;;;;;;;2.60;1.13;;;23.90;99.90;;;;;;5024203;28;20464;-72
2022/06/27 10:15:26;;;;;;;1.93;1.50;;;24.10;99.90;;;;;;5024916;28;20183;-71
2022/06/27 10:17:54;;;;;;;3.30;1.17;;;24.30;99.90;;;;;;5006834;28;20845;-70
2022/06/27 10:20:36;;;;;;;1.70;1.60;;;24.20;99.90;;;;;;5024403;28;20855;-69
2022/06/27 10:23:11;;;;;;;3.93;1.87;;;23.80;99.90;;;;;;5024881;28;20444;-69
2022/06/27 10:25:38;;;;;;;1.97;1.50;;;23.70;99.90;;;;;;5025016;28;20397;-70
2022/06/27 10:28:10;;;;;;;1.97;1.87;;;23.40;99.90;;;;;;5024812;28;20430;-69
2022/06/27 10:30:39;;;;;;;2.10;1.90;;;23.30;99.90;;;;;;5024112;28;20526;-69
2022/06/27 10:33:22;;;;;;;2.00;1.90;;;23.10;99.90;;;;;;5024600;28;20413;-70
2022/06/27 10:35:57;;;;;;;2.13;1.93;;;23.00;99.90;;;;;;5024521;28;20410;-72
2022/06/27 10:38:34;;;;;;;4.30;2.27;;;22.90;99.90;;;;;;5024332;28;20806;-70
2022/06/27 10:41:05;;;;;;;2.40;2.20;;;23.10;99.90;;;;;;5023220;28;20453;-70
2022/06/27 10:43:36;;;;;;;2.50;1.93;;;23.10;99.90;;;;;;5017926;28;20414;-70
2022/06/27 10:46:05;;;;;;;3.33;2.20;;;23.00;99.90;;;;;;5022116;28;20488;-69
2022/06/27 10:48:36;;;;;;;4.00;2.77;;;23.10;99.90;;;;;;5024193;28;20475;-68
2022/06/27 10:51:27;;;;;;;2.70;2.50;;;23.10;99.90;;;;;;5023872;28;20902;-69
2022/06/27 10:54:05;;;;;;;3.20;2.50;;;22.90;99.90;;;;;;5023810;28;20402;-69
2022/06/27 10:56:45;;;;;;;3.27;2.47;;;23.00;99.90;;;;;;5023185;28;20473;-70
2022/06/27 10:59:13;;;;;;;2.60;2.17;;;23.10;99.90;;;;;;5023247;28;20834;-69
2022/06/27 11:02:03;;;;;;;2.10;1.83;;;23.10;99.90;;;;;;5023952;28;20456;-70
2022/06/27 11:04:29;;;;;;;8.40;2.70;;;23.20;99.90;;;;;;5023704;28;20421;-69
2022/06/27 11:06:59;;;;;;;2.10;1.90;;;23.00;99.90;;;;;;5023604;28;20527;-70
2022/06/27 11:09:45;;;;;;;2.50;2.23;;;23.00;99.90;;;;;;5023617;28;20413;-69
2022/06/27 11:12:19;;;;;;;2.20;2.10;;;22.90;99.90;;;;;;5023636;28;20401;-70
2022/06/27 11:14:56;;;;;;;3.17;2.50;;;22.90;99.90;;;;;;5022495;28;20417;-70
2022/06/27 11:17:37;;;;;;;2.57;2.37;;;23.00;99.90;;;;;;5023681;28;20568;-69
2022/06/27 11:20:20;;;;;;;2.90;2.10;;;23.10;99.90;;;;;;5005749;28;20466;-69
2022/06/27 11:22:51;;;;;;;3.10;2.80;;;23.30;99.90;;;;;;5023473;28;21474;-71
2022/06/27 11:25:19;;;;;;;2.80;2.40;;;23.40;99.90;;;;;;5023762;28;20398;-68
2022/06/27 11:27:56;;;;;;;3.30;2.47;;;23.20;99.90;;;;;;5023814;28;20472;-69
2022/06/27 11:33:26;;;;;;;3.00;2.70;;;23.30;99.90;;;;;;5023576;28;20401;-70
2022/06/27 11:35:55;;;;;;;2.30;2.10;;;23.10;99.90;;;;;;5023405;28;20418;-70
2022/06/27 11:38:25;;;;;;;2.70;1.83;;;23.30;99.90;;;;;;5023698;28;20455;-70
2022/06/27 11:41:02;;;;;;;2.20;2.00;;;23.50;99.90;;;;;;5023706;28;20454;-70
2022/06/27 11:43:45;;;;;;;4.17;2.20;;;23.50;99.90;;;;;;5027532;28;20439;-70
2022/06/27 11:46:45;;;;;;;3.70;2.47;;;23.40;99.90;;;;;;5027848;28;20507;-70
2022/06/27 11:49:13;;;;;;;3.97;2.10;;;23.20;99.90;;;;;;5020170;28;20418;-70
2022/06/27 11:51:41;;;;;;;4.80;2.47;;;23.20;99.90;;;;;;5027457;28;20457;-71
2022/06/27 11:54:13;;;;;;;2.00;1.90;;;23.10;99.90;;;;;;5027338;28;20520;-70
2022/06/27 11:56:41;;;;;;;3.00;2.20;;;23.00;99.90;;;;;;5027260;28;20473;-69
2022/06/27 11:59:09;;;;;;;2.67;2.47;;;23.00;99.90;;;;;;5027199;28;20426;-69
2022/06/27 12:02:02;;;;;;;3.57;2.23;;;23.00;99.90;;;;;;5026777;28;20457;-69
2022/06/27 12:04:33;;;;;;;2.80;2.50;;;23.00;99.90;;;;;;5027313;28;20406;-69
2022/06/27 12:07:06;;;;;;;3.50;2.40;;;23.10;99.90;;;;;;5026922;28;20453;-68
2022/06/27 12:09:47;;;;;;;1.80;1.70;;;22.70;99.90;;;;;;5008775;28;20425;-69
2022/06/27 12:12:26;;;;;;;2.90;2.20;;;22.60;99.90;;;;;;5026453;28;20424;-69
2022/06/27 12:14:53;;;;;;;2.50;1.93;;;22.70;99.90;;;;;;5014235;28;20414;-70
2022/06/27 12:17:21;;;;;;;2.40;2.20;;;22.70;99.90;;;;;;5026974;28;20491;-69
2022/06/27 12:19:57;;;;;;;2.47;2.23;;;22.60;99.90;;;;;;5027000;28;20503;-68
2022/06/27 12:22:23;;;;;;;3.63;2.73;;;22.60;99.90;;;;;;5026984;28;20405;-69
2022/06/27 12:24:49;;;;;;;4.90;2.37;;;22.50;99.90;;;;;;5026992;28;20413;-69
2022/06/27 12:27:14;;;;;;;3.70;2.20;;;22.50;99.90;;;;;;5026848;28;20491;-70
2022/06/27 12:29:40;;;;;;;3.20;2.17;;;22.40;99.90;;;;;;5026994;28;20286;-69
2022/06/27 12:32:06;;;;;;;2.03;1.90;;;22.40;99.90;;;;;;5027244;28;20267;-69
2022/06/27 12:34:32;;;;;;;2.50;2.30;;;22.30;99.90;;;;;;5026850;28;20179;-70
2022/06/27 12:36:58;;;;;;;2.80;2.60;;;22.40;99.90;;;;;;5027733;28;20570;-69
2022/06/27 12:39:23;;;;;;;3.90;2.63;;;22.30;99.90;;;;;;5026143;28;20410;-68
2022/06/27 12:41:49;;;;;;;3.00;1.87;;;22.20;99.90;;;;;;5026780;28;20202;-69
2022/06/27 12:44:15;;;;;;;2.30;2.10;;;22.20;99.90;;;;;;5026570;28;20179;-68
2022/06/27 12:46:41;;;;;;;2.30;2.17;;;22.20;99.90;;;;;;5026842;28;20774;-70
2022/06/27 12:49:06;;;;;;;2.53;2.13;;;22.40;99.90;;;;;;5026947;28;20175;-70
2022/06/27 12:51:32;;;;;;;2.30;2.10;;;22.40;99.90;;;;;;5026240;28;20226;-70
2022/06/27 12:53:59;;;;;;;3.23;2.10;;;22.20;99.90;;;;;;5025609;28;20250;-70
2022/06/27 12:56:25;;;;;;;3.00;2.67;;;22.20;99.90;;;;;;5026013;28;20206;-69
2022/06/27 12:58:51;;;;;;;2.43;2.23;;;22.10;99.90;;;;;;5026190;28;20414;-70